Time;durP1;ratioP1;P1;durP2;ratioP2;P2;SDS_P1;SDS_P2;PMS_P1;PMS_P2;Temp;Humidity;BMP_temperature;BMP_pressure;BME280_temperature;BME280_humidity;BME280_pressure;Samples;Min_cycle;Max_cycle;Signal;HPM_P1;HPM_P2
2022/01/18 00:01:34;;;;;;;4.30;1.60;;;4.70;99.90;;;;;;5049997;28;20821;-78
2022/01/18 00:04:01;;;;;;;4.20;2.00;;;4.70;99.90;;;;;;5049735;28;20475;-74
2022/01/18 00:06:29;;;;;;;4.07;1.90;;;4.60;99.90;;;;;;5048995;28;20461;-74
2022/01/18 00:08:56;;;;;;;4.03;2.13;;;4.60;99.90;;;;;;5049239;28;20456;-75
2022/01/18 00:11:26;;;;;;;4.33;2.07;;;4.60;99.90;;;;;;5049175;28;20449;-76
2022/01/18 00:14:01;;;;;;;4.10;1.90;;;4.60;99.90;;;;;;5049600;28;20913;-74
2022/01/18 00:16:36;;;;;;;8.00;2.43;;;4.60;99.90;;;;;;5049238;28;20460;-75
2022/01/18 00:19:08;;;;;;;3.60;1.80;;;4.70;99.90;;;;;;5049241;28;20537;-76
2022/01/18 00:21:50;;;;;;;5.73;2.23;;;4.60;99.90;;;;;;5049243;28;21072;-80
2022/01/18 00:24:18;;;;;;;4.40;2.50;;;4.50;99.90;;;;;;5049374;28;20480;-78
2022/01/18 00:26:45;;;;;;;5.67;2.30;;;4.50;99.90;;;;;;5049456;28;20483;-77
2022/01/18 00:29:15;;;;;;;4.30;2.43;;;4.60;99.90;;;;;;5049797;28;20451;-76
2022/01/18 00:31:56;;;;;;;4.43;2.57;;;4.50;99.90;;;;;;5049226;28;20792;-75
2022/01/18 00:34:26;;;;;;;5.40;2.90;;;4.50;99.90;;;;;;5056292;28;20537;-71
2022/01/18 00:37:12;;;;;;;5.57;3.00;;;4.60;99.90;;;;;;5051919;28;20457;-78
2022/01/18 00:39:41;;;;;;;5.10;3.07;;;4.70;99.90;;;;;;5049058;28;20468;-80
2022/01/18 00:42:09;;;;;;;5.17;2.43;;;4.70;99.90;;;;;;5049388;28;20577;-78
2022/01/18 00:44:36;;;;;;;7.17;3.03;;;4.70;99.90;;;;;;5049218;28;20500;-72
2022/01/18 00:47:06;;;;;;;5.00;2.80;;;4.50;99.90;;;;;;5049121;28;20464;-72
2022/01/18 00:49:40;;;;;;;4.50;2.30;;;4.60;99.90;;;;;;5049379;28;20640;-75
2022/01/18 00:52:07;;;;;;;6.27;3.40;;;4.60;99.90;;;;;;5049349;28;20810;-75
2022/01/18 00:54:39;;;;;;;5.80;3.47;;;4.60;99.90;;;;;;5049142;28;20471;-75
2022/01/18 00:57:07;;;;;;;5.30;3.00;;;4.50;99.90;;;;;;5048923;28;20814;-78
2022/01/18 00:59:34;;;;;;;5.50;3.57;;;4.60;99.90;;;;;;5049350;28;20460;-75
2022/01/18 01:02:01;;;;;;;5.47;3.53;;;4.60;99.90;;;;;;5049166;28;20492;-76
2022/01/18 01:04:34;;;;;;;7.43;3.60;;;4.50;99.90;;;;;;5049162;28;20473;-72
2022/01/18 01:07:01;;;;;;;6.53;4.00;;;4.50;99.90;;;;;;5049126;28;21060;-77
2022/01/18 01:09:29;;;;;;;6.80;3.50;;;4.50;99.90;;;;;;5049231;28;20460;-78
2022/01/18 01:11:56;;;;;;;6.43;3.87;;;4.60;99.90;;;;;;5048892;28;20455;-75
2022/01/18 01:14:25;;;;;;;6.57;3.93;;;4.40;99.90;;;;;;5048970;28;20490;-79
2022/01/18 01:17:00;;;;;;;6.67;4.17;;;4.30;99.90;;;;;;5048770;28;20550;-74
2022/01/18 01:36:28;;;;;;;6.50;3.20;;;3.90;99.90;;;;;;5052785;28;20457;-77
2022/01/18 01:42:04;;;;;;;5.13;2.50;;;3.40;99.90;;;;;;5052284;28;20555;-79
2022/01/18 01:44:42;;;;;;;4.77;2.67;;;3.40;99.90;;;;;;5051658;28;20562;-73
2022/01/18 01:47:11;;;;;;;4.77;2.83;;;3.40;99.90;;;;;;5051900;28;20470;-77
2022/01/18 01:49:40;;;;;;;6.87;3.00;;;3.40;99.90;;;;;;5052350;28;20562;-73
2022/01/18 01:52:10;;;;;;;5.57;3.00;;;3.30;99.90;;;;;;5052394;28;20457;-72
2022/01/18 01:54:38;;;;;;;4.80;3.07;;;3.30;99.90;;;;;;5052233;28;20847;-78
2022/01/18 01:57:06;;;;;;;5.67;3.53;;;3.40;99.90;;;;;;5052108;28;20464;-73
2022/01/18 01:59:33;;;;;;;6.17;3.60;;;3.30;99.90;;;;;;5052252;28;20487;-75
2022/01/18 02:02:00;;;;;;;5.97;3.27;;;3.30;99.90;;;;;;5053837;28;20491;-78
2022/01/18 02:04:27;;;;;;;4.63;2.83;;;3.30;99.90;;;;;;5052318;28;20470;-75
2022/01/18 02:06:54;;;;;;;6.70;3.10;;;3.30;99.90;;;;;;5051909;28;20859;-77
2022/01/18 02:09:23;;;;;;;5.67;3.20;;;3.40;99.90;;;;;;5052129;28;20452;-74
2022/01/18 02:11:51;;;;;;;6.50;3.30;;;3.30;99.90;;;;;;5052082;28;20452;-72
2022/01/18 02:14:21;;;;;;;4.97;2.67;;;3.40;99.90;;;;;;5051733;28;21063;-74
2022/01/18 02:22:19;;;;;;;3.93;1.60;;;3.10;99.90;;;;;;5051767;28;21039;-78
2022/01/18 02:24:46;;;;;;;5.23;2.40;;;3.20;99.90;;;;;;5051349;28;20473;-73
2022/01/18 02:27:13;;;;;;;3.67;1.50;;;3.20;99.90;;;;;;5052401;28;20452;-72
2022/01/18 02:29:40;;;;;;;4.03;1.40;;;3.00;99.90;;;;;;5056977;28;20462;-71
2022/01/18 02:32:08;;;;;;;3.80;1.77;;;3.00;99.90;;;;;;5057361;28;20453;-71
2022/01/18 02:34:36;;;;;;;4.17;1.90;;;2.90;99.90;;;;;;5060537;28;20497;-75
2022/01/18 02:37:04;;;;;;;3.10;1.20;;;2.90;99.90;;;;;;5052191;28;20461;-76
2022/01/18 02:39:33;;;;;;;4.63;1.43;;;2.80;99.90;;;;;;5051934;28;20557;-75
2022/01/18 02:42:03;;;;;;;4.80;1.20;;;2.70;99.90;;;;;;5051535;28;20497;-76
2022/01/18 02:44:32;;;;;;;3.83;1.50;;;2.80;99.90;;;;;;5051449;28;20496;-75
2022/01/18 02:46:59;;;;;;;4.07;1.40;;;2.70;99.90;;;;;;5050891;28;20457;-73
2022/01/18 02:49:27;;;;;;;3.03;1.13;;;2.70;99.90;;;;;;5051041;28;20460;-77
2022/01/18 02:51:54;;;;;;;4.40;1.73;;;2.40;99.90;;;;;;5051104;28;20860;-78
2022/01/18 02:54:21;;;;;;;3.47;1.30;;;2.50;99.90;;;;;;5050886;28;20476;-75
2022/01/18 02:56:55;;;;;;;3.33;1.23;;;2.40;99.90;;;;;;5051019;28;20801;-77
2022/01/18 02:59:32;;;;;;;4.30;1.53;;;2.30;99.90;;;;;;5051054;28;20887;-78
2022/01/18 03:04:47;;;;;;;4.00;1.43;;;2.20;99.90;;;;;;5050546;28;20914;-75
2022/01/18 03:07:14;;;;;;;4.97;1.77;;;2.20;99.90;;;;;;5050597;28;20457;-72
2022/01/18 03:09:41;;;;;;;3.43;1.40;;;2.20;99.90;;;;;;5050930;28;20460;-81
2022/01/18 03:12:11;;;;;;;5.37;1.73;;;2.30;99.90;;;;;;5050723;28;20855;-77
2022/01/18 03:14:40;;;;;;;2.87;1.03;;;2.20;99.90;;;;;;5050391;28;20506;-77
2022/01/18 03:17:07;;;;;;;5.30;1.40;;;2.10;99.90;;;;;;5050414;28;20535;-72
2022/01/18 03:19:35;;;;;;;3.87;1.27;;;2.10;99.90;;;;;;5050168;28;20489;-77
2022/01/18 03:22:03;;;;;;;3.60;1.30;;;1.80;99.90;;;;;;5050452;28;20478;-78
2022/01/18 03:24:45;;;;;;;4.07;1.90;;;1.90;99.90;;;;;;5050354;28;20526;-75
2022/01/18 03:30:00;;;;;;;3.80;1.50;;;1.80;99.90;;;;;;5050365;28;20908;-80
2022/01/18 03:32:27;;;;;;;4.37;1.77;;;1.70;99.90;;;;;;5050058;28;20452;-75
2022/01/18 03:34:54;;;;;;;7.43;2.03;;;1.60;99.90;;;;;;5050493;28;20978;-80
2022/01/18 03:37:21;;;;;;;3.97;1.40;;;1.60;99.90;;;;;;5050190;28;20462;-80
2022/01/18 03:39:48;;;;;;;4.60;1.30;;;1.50;99.90;;;;;;5050036;28;20966;-74
2022/01/18 03:45:09;;;;;;;4.37;1.60;;;1.50;99.90;;;;;;5038688;28;21002;-74
2022/01/18 03:47:36;;;;;;;3.63;1.43;;;1.60;99.90;;;;;;5050095;28;20459;-78
2022/01/18 03:50:04;;;;;;;4.50;1.63;;;1.60;99.90;;;;;;5049557;28;20457;-73
2022/01/18 03:52:32;;;;;;;3.20;1.37;;;1.60;99.90;;;;;;5049625;28;20442;-73
2022/01/18 03:54:59;;;;;;;4.40;1.43;;;1.50;99.90;;;;;;5049900;28;20477;-75
2022/01/18 03:57:28;;;;;;;3.87;1.73;;;1.60;99.90;;;;;;5049640;28;20512;-73
2022/01/18 03:59:55;;;;;;;4.93;1.90;;;1.60;99.90;;;;;;5049622;28;20839;-73
2022/01/18 04:02:22;;;;;;;3.60;1.30;;;1.70;99.90;;;;;;5049278;28;21037;-76
2022/01/18 04:04:49;;;;;;;4.00;1.60;;;1.60;99.90;;;;;;5050048;28;20771;-80
2022/01/18 04:07:16;;;;;;;4.63;1.80;;;1.60;99.90;;;;;;5049314;28;20451;-74
2022/01/18 04:09:43;;;;;;;3.53;1.43;;;1.70;99.90;;;;;;5049465;28;20456;-74
2022/01/18 04:12:11;;;;;;;4.13;2.00;;;1.70;99.90;;;;;;5049716;28;20454;-79
2022/01/18 04:14:39;;;;;;;4.90;1.77;;;1.70;99.90;;;;;;5049716;28;20514;-77
2022/01/18 04:17:14;;;;;;;5.10;1.73;;;1.60;99.90;;;;;;5049469;28;20455;-74
2022/01/18 04:28:16;;;;;;;4.10;1.63;;;1.60;99.90;;;;;;5049388;28;20796;-74
2022/01/18 04:30:44;;;;;;;3.97;1.70;;;1.50;99.90;;;;;;5049376;28;20467;-76
2022/01/18 04:33:11;;;;;;;4.40;1.53;;;1.50;99.90;;;;;;5052555;28;20462;-73
2022/01/18 04:35:38;;;;;;;4.87;1.50;;;1.30;99.90;;;;;;5056453;28;20454;-79
2022/01/18 04:38:05;;;;;;;5.27;1.87;;;1.30;99.90;;;;;;5048782;28;20973;-74
2022/01/18 04:40:33;;;;;;;3.77;1.50;;;1.40;99.90;;;;;;5049253;28;20455;-79
2022/01/18 04:43:11;;;;;;;4.60;1.43;;;1.40;99.90;;;;;;5049499;28;20500;-79
2022/01/18 04:48:27;;;;;;;4.23;1.83;;;1.40;99.90;;;;;;5049113;28;20438;-77
2022/01/18 04:50:55;;;;;;;3.90;1.77;;;1.40;99.90;;;;;;5048885;28;20458;-79
2022/01/18 04:53:22;;;;;;;6.30;1.83;;;1.40;99.90;;;;;;5050331;28;20465;-72
2022/01/18 04:55:54;;;;;;;4.90;2.23;;;1.40;99.90;;;;;;5053289;28;20454;-76
2022/01/18 04:58:21;;;;;;;4.50;1.60;;;1.30;99.90;;;;;;5053422;28;20549;-75
2022/01/18 05:00:51;;;;;;;4.57;1.47;;;1.20;99.90;;;;;;5053204;28;20519;-79
2022/01/18 05:03:18;;;;;;;3.93;1.77;;;1.30;99.90;;;;;;5053091;28;20876;-75
2022/01/18 05:05:48;;;;;;;4.43;1.60;;;1.30;99.90;;;;;;5052946;28;20519;-72
2022/01/18 05:08:16;;;;;;;3.90;1.60;;;1.40;99.90;;;;;;5058543;28;20461;-75
2022/01/18 05:10:50;;;;;;;4.83;2.03;;;1.40;99.90;;;;;;5056637;28;20458;-67
2022/01/18 05:13:31;;;;;;;4.00;1.67;;;1.30;99.90;;;;;;5052805;28;20462;-79
2022/01/18 05:16:08;;;;;;;4.50;1.90;;;1.50;99.90;;;;;;5052904;28;20460;-73
2022/01/18 05:21:25;;;;;;;5.00;2.00;;;1.40;99.90;;;;;;5052738;28;20946;-74
2022/01/18 05:23:51;;;;;;;3.63;1.70;;;1.40;99.90;;;;;;5052804;28;20490;-76
2022/01/18 05:26:19;;;;;;;4.97;1.77;;;1.40;99.90;;;;;;5059066;28;20454;-72
2022/01/18 05:28:46;;;;;;;4.47;1.60;;;1.50;99.90;;;;;;5060238;28;20457;-72
2022/01/18 05:31:13;;;;;;;4.77;2.20;;;1.60;99.90;;;;;;5062651;28;20453;-73
2022/01/18 05:33:42;;;;;;;5.23;2.07;;;1.50;99.90;;;;;;5064658;28;20974;-75
2022/01/18 05:36:09;;;;;;;6.47;2.10;;;1.60;99.90;;;;;;5054590;28;20513;-82
2022/01/18 05:38:39;;;;;;;5.40;2.07;;;1.50;99.90;;;;;;5053393;28;20457;-75
2022/01/18 05:41:08;;;;;;;5.03;2.33;;;1.60;99.90;;;;;;5052764;28;20462;-79
2022/01/18 05:43:36;;;;;;;5.10;2.10;;;1.50;99.90;;;;;;5052236;28;20568;-71
2022/01/18 05:46:04;;;;;;;5.40;2.40;;;1.50;99.90;;;;;;5052581;28;20457;-78
2022/01/18 05:48:31;;;;;;;4.33;2.20;;;1.50;99.90;;;;;;5052397;28;20450;-72
2022/01/18 05:50:59;;;;;;;6.50;2.57;;;1.50;99.90;;;;;;5052225;28;20454;-80
2022/01/18 05:53:26;;;;;;;4.07;1.80;;;1.50;99.90;;;;;;5052223;28;20558;-73
2022/01/18 05:55:55;;;;;;;4.93;2.23;;;1.50;99.90;;;;;;5052029;28;20507;-73
2022/01/18 05:58:22;;;;;;;4.80;2.33;;;1.60;99.90;;;;;;5052194;28;20869;-73
2022/01/18 06:00:52;;;;;;;4.77;2.43;;;1.50;99.90;;;;;;5052072;28;20599;-73
2022/01/18 06:03:27;;;;;;;4.27;1.97;;;1.50;99.90;;;;;;5051518;28;20580;-72
2022/01/18 06:08:39;;;;;;;5.57;2.57;;;1.40;99.90;;;;;;5051727;28;20978;-71
2022/01/18 06:11:08;;;;;;;4.27;2.20;;;1.50;99.90;;;;;;5051777;28;20457;-71
2022/01/18 06:13:35;;;;;;;4.70;2.03;;;1.40;99.90;;;;;;5050941;28;20475;-71
2022/01/18 06:16:02;;;;;;;5.03;2.60;;;1.40;99.90;;;;;;5051443;28;20462;-72
2022/01/18 06:18:29;;;;;;;6.10;2.30;;;1.40;99.90;;;;;;5051429;28;20457;-71
2022/01/18 06:20:58;;;;;;;6.70;3.03;;;1.30;99.90;;;;;;5051249;28;20550;-72
2022/01/18 06:23:25;;;;;;;5.03;2.30;;;1.30;99.90;;;;;;5051831;28;20938;-77
2022/01/18 06:25:54;;;;;;;5.87;2.47;;;1.40;99.90;;;;;;5051650;28;20458;-79
2022/01/18 06:28:22;;;;;;;4.27;2.63;;;1.40;99.90;;;;;;5051725;28;20519;-79
2022/01/18 06:30:49;;;;;;;4.50;2.50;;;1.50;99.90;;;;;;5051544;28;20860;-75
2022/01/18 06:33:16;;;;;;;6.10;2.90;;;1.60;99.90;;;;;;5052882;28;20481;-75
2022/01/18 06:35:43;;;;;;;4.63;2.40;;;1.50;99.90;;;;;;5052842;28;20453;-73
2022/01/18 06:38:12;;;;;;;4.60;2.57;;;1.50;99.90;;;;;;5051269;28;20450;-76
2022/01/18 06:40:39;;;;;;;4.60;2.93;;;1.50;99.90;;;;;;5051196;28;20954;-70
2022/01/18 06:43:07;;;;;;;6.33;3.20;;;1.70;99.90;;;;;;5050881;28;20490;-75
2022/01/18 06:45:35;;;;;;;7.13;2.80;;;1.70;99.90;;;;;;5051449;28;20951;-74
2022/01/18 06:48:02;;;;;;;5.07;2.90;;;1.60;99.90;;;;;;5051087;28;20455;-69
2022/01/18 06:50:30;;;;;;;6.43;2.77;;;1.60;99.90;;;;;;5050868;28;20460;-72
2022/01/18 06:52:57;;;;;;;5.50;2.77;;;1.70;99.90;;;;;;5051164;28;20450;-71
2022/01/18 06:55:24;;;;;;;5.20;2.80;;;1.80;99.90;;;;;;5051255;28;20485;-71
2022/01/18 06:57:51;;;;;;;4.03;2.23;;;1.60;99.90;;;;;;5050616;28;20543;-72
2022/01/18 07:00:18;;;;;;;4.50;3.20;;;1.50;99.90;;;;;;5050833;28;20462;-72
2022/01/18 07:02:47;;;;;;;4.87;2.50;;;1.60;99.90;;;;;;5050776;28;20486;-69
2022/01/18 07:05:14;;;;;;;4.00;2.40;;;1.40;99.90;;;;;;5050249;28;20994;-73
2022/01/18 07:07:42;;;;;;;4.53;2.50;;;1.40;99.90;;;;;;5050593;28;20492;-72
2022/01/18 07:10:11;;;;;;;5.70;3.10;;;1.50;99.90;;;;;;5050658;28;20548;-71
2022/01/18 07:12:38;;;;;;;4.57;2.97;;;1.50;99.90;;;;;;5050691;28;20499;-71
2022/01/18 07:15:07;;;;;;;5.77;2.40;;;1.60;99.90;;;;;;5051134;28;20473;-73
2022/01/18 07:17:34;;;;;;;6.30;2.90;;;1.70;99.90;;;;;;5050344;28;20544;-71
2022/01/18 07:20:03;;;;;;;5.50;2.30;;;1.90;99.90;;;;;;5049629;28;20498;-69
2022/01/18 07:22:31;;;;;;;4.90;2.40;;;1.60;99.90;;;;;;5050202;28;20490;-69
2022/01/18 07:24:59;;;;;;;4.77;2.70;;;1.70;99.90;;;;;;5050350;28;20478;-74
2022/01/18 07:27:26;;;;;;;6.33;4.03;;;1.90;99.90;;;;;;5050140;28;20455;-69
2022/01/18 07:29:53;;;;;;;4.73;3.10;;;2.00;99.90;;;;;;5050243;28;20808;-73
2022/01/18 07:32:21;;;;;;;6.50;2.70;;;1.90;99.90;;;;;;5048829;28;20479;-71
2022/01/18 07:34:52;;;;;;;4.20;2.20;;;1.90;99.90;;;;;;5049948;28;20474;-71
2022/01/18 07:37:21;;;;;;;6.90;2.73;;;1.90;99.90;;;;;;5049812;28;20470;-73
2022/01/18 07:39:49;;;;;;;6.20;3.00;;;1.90;99.90;;;;;;5049825;28;20464;-74
2022/01/18 07:42:17;;;;;;;7.50;3.23;;;1.90;99.90;;;;;;5049537;28;20938;-73
2022/01/18 07:44:45;;;;;;;7.33;3.80;;;1.90;99.90;;;;;;5050061;28;20481;-71
2022/01/18 07:47:12;;;;;;;5.13;3.00;;;2.10;99.90;;;;;;5050203;28;20496;-73
2022/01/18 07:49:39;;;;;;;5.00;2.87;;;2.20;99.90;;;;;;5049339;28;20510;-71
2022/01/18 07:52:07;;;;;;;6.57;3.00;;;2.10;99.90;;;;;;5049607;28;20462;-71
2022/01/18 07:54:35;;;;;;;6.20;3.10;;;2.20;99.90;;;;;;5049711;28;20498;-72
2022/01/18 07:57:03;;;;;;;6.13;3.90;;;2.50;99.90;;;;;;5049402;28;20463;-72
2022/01/18 07:59:30;;;;;;;6.00;3.10;;;2.80;99.90;;;;;;5049903;28;20529;-72
2022/01/18 08:01:57;;;;;;;4.80;2.77;;;2.90;99.90;;;;;;5049803;28;20855;-73
2022/01/18 08:04:24;;;;;;;5.03;2.50;;;3.00;99.90;;;;;;5049182;28;20490;-76
2022/01/18 08:06:51;;;;;;;5.33;3.00;;;2.90;99.90;;;;;;5049118;28;20483;-73
2022/01/18 08:09:19;;;;;;;4.77;2.30;;;3.00;99.90;;;;;;5049681;28;20453;-75
2022/01/18 08:11:48;;;;;;;4.40;2.43;;;3.10;99.90;;;;;;5049432;28;20957;-75
2022/01/18 08:14:17;;;;;;;4.83;2.60;;;2.80;99.90;;;;;;5049493;28;20480;-75
2022/01/18 08:16:50;;;;;;;4.90;2.20;;;2.90;99.90;;;;;;5049043;28;20819;-73
2022/01/18 08:19:18;;;;;;;8.70;4.83;;;3.00;99.90;;;;;;5048886;28;20486;-73
2022/01/18 08:21:45;;;;;;;5.93;2.13;;;2.80;99.90;;;;;;5051404;28;20546;-71
2022/01/18 08:24:12;;;;;;;4.73;2.47;;;2.80;99.90;;;;;;5055609;28;20903;-71
2022/01/18 08:26:40;;;;;;;4.90;2.53;;;2.60;99.90;;;;;;5055864;28;20461;-76
2022/01/18 08:29:12;;;;;;;3.87;2.20;;;2.70;99.90;;;;;;5058414;28;20451;-71
2022/01/18 08:31:39;;;;;;;6.73;2.50;;;2.90;99.90;;;;;;5056249;28;20458;-72
2022/01/18 08:34:06;;;;;;;6.70;2.23;;;3.00;99.90;;;;;;5053931;28;20473;-74
2022/01/18 08:36:33;;;;;;;6.93;3.80;;;3.10;99.90;;;;;;5048000;28;20457;-70
2022/01/18 08:39:01;;;;;;;8.47;3.80;;;3.40;99.90;;;;;;5047695;28;20455;-76
2022/01/18 08:41:28;;;;;;;7.53;3.87;;;3.60;99.90;;;;;;5048868;28;20462;-72
2022/01/18 08:43:55;;;;;;;4.73;2.93;;;3.80;99.90;;;;;;5049234;28;20507;-73
2022/01/18 08:46:24;;;;;;;5.23;2.50;;;4.00;99.90;;;;;;5049104;28;21723;-72
2022/01/18 08:48:51;;;;;;;4.27;2.03;;;4.30;99.90;;;;;;5049435;28;20524;-73
2022/01/18 08:51:19;;;;;;;4.63;2.50;;;4.50;98.40;;;;;;5049386;28;20460;-77
2022/01/18 08:53:50;;;;;;;4.57;2.07;;;4.50;97.50;;;;;;5048981;28;20475;-73
2022/01/18 08:56:17;;;;;;;3.43;1.83;;;3.90;96.70;;;;;;5049404;28;20842;-73
2022/01/18 08:58:45;;;;;;;6.03;2.20;;;4.00;97.50;;;;;;5049084;28;20456;-74
2022/01/18 09:01:12;;;;;;;5.70;2.53;;;4.20;97.50;;;;;;5048990;28;20946;-72
2022/01/18 09:03:41;;;;;;;4.73;2.50;;;4.20;96.40;;;;;;5049243;28;20548;-75
2022/01/18 09:06:12;;;;;;;3.70;2.37;;;3.90;97.30;;;;;;5049243;28;20868;-76
2022/01/18 09:08:41;;;;;;;8.63;2.63;;;4.10;97.70;;;;;;5049297;28;20505;-77
2022/01/18 09:11:08;;;;;;;4.50;2.30;;;4.40;97.20;;;;;;5049254;28;20461;-73
2022/01/18 09:13:35;;;;;;;5.90;2.50;;;4.20;96.90;;;;;;5048752;28;20477;-73
2022/01/18 09:16:06;;;;;;;6.43;2.37;;;4.30;97.00;;;;;;5048873;28;20447;-72
2022/01/18 09:18:33;;;;;;;5.40;2.40;;;4.50;96.20;;;;;;5049211;28;20545;-74
2022/01/18 09:21:01;;;;;;;4.57;2.50;;;4.60;95.70;;;;;;5048757;28;20483;-72
2022/01/18 09:23:28;;;;;;;6.87;2.60;;;4.70;95.70;;;;;;5048942;28;20489;-71
2022/01/18 09:25:56;;;;;;;5.77;2.87;;;4.60;95.60;;;;;;5048945;28;20463;-71
2022/01/18 09:28:23;;;;;;;7.73;2.77;;;4.70;95.30;;;;;;5048717;28;20465;-72
2022/01/18 09:30:50;;;;;;;5.53;2.30;;;4.70;95.30;;;;;;5048965;28;20467;-71
2022/01/18 09:33:17;;;;;;;4.83;2.00;;;4.80;95.30;;;;;;5048933;28;20476;-72
2022/01/18 09:35:44;;;;;;;5.33;2.80;;;5.00;95.00;;;;;;5049058;28;20543;-70
2022/01/18 09:38:12;;;;;;;6.10;3.10;;;5.30;95.30;;;;;;5048625;28;20901;-76
2022/01/18 09:40:39;;;;;;;5.33;2.73;;;5.50;95.00;;;;;;5050172;28;20461;-76
2022/01/18 09:43:11;;;;;;;6.60;3.40;;;5.50;94.30;;;;;;5052510;28;20461;-79
2022/01/18 09:45:41;;;;;;;4.87;2.60;;;5.60;94.30;;;;;;5052305;28;20954;-76
2022/01/18 09:48:10;;;;;;;6.67;2.67;;;5.60;93.30;;;;;;5052549;28;20536;-71
2022/01/18 09:50:39;;;;;;;5.13;2.90;;;5.70;93.60;;;;;;5052544;28;20455;-73
2022/01/18 09:53:08;;;;;;;6.63;2.53;;;5.70;93.10;;;;;;5052460;28;20447;-79
2022/01/18 09:55:38;;;;;;;6.40;3.47;;;5.70;92.80;;;;;;5052422;28;20482;-75
2022/01/18 09:58:07;;;;;;;5.43;2.70;;;5.70;92.40;;;;;;5052455;28;20593;-74
2022/01/18 10:00:36;;;;;;;5.10;2.87;;;5.30;91.90;;;;;;5052577;28;20460;-74
2022/01/18 10:03:04;;;;;;;6.97;2.93;;;4.80;93.00;;;;;;5051701;28;20531;-72
2022/01/18 10:05:34;;;;;;;4.90;2.40;;;4.90;93.40;;;;;;5052299;28;20791;-77
2022/01/18 10:08:06;;;;;;;4.60;2.70;;;4.90;93.00;;;;;;5052094;28;20834;-74
2022/01/18 10:10:44;;;;;;;6.33;2.37;;;5.00;93.00;;;;;;5052130;28;20450;-73
2022/01/18 10:13:17;;;;;;;6.60;2.90;;;4.80;93.10;;;;;;5052056;28;20459;-72
2022/01/18 10:16:04;;;;;;;6.20;2.90;;;5.10;93.50;;;;;;5051465;28;20456;-75
2022/01/18 10:18:44;;;;;;;6.37;2.87;;;5.60;93.90;;;;;;5051293;28;20456;-71
2022/01/18 10:21:11;;;;;;;6.20;2.90;;;6.10;92.70;;;;;;5051491;28;20486;-70
2022/01/18 10:23:39;;;;;;;7.80;3.20;;;6.30;91.60;;;;;;5051798;28;20497;-68
2022/01/18 10:26:20;;;;;;;5.23;2.80;;;6.40;90.90;;;;;;5051683;28;20442;-82
2022/01/18 10:28:47;;;;;;;7.90;2.63;;;6.50;90.10;;;;;;5051529;28;20464;-69
2022/01/18 10:31:26;;;;;;;8.43;2.80;;;6.50;88.00;;;;;;5051282;28;21016;-71
2022/01/18 10:34:29;;;;;;;6.07;2.27;;;6.30;88.70;;;;;;5052065;28;20473;-72
2022/01/18 10:37:00;;;;;;;6.93;2.47;;;6.30;88.60;;;;;;5053484;28;20460;-75
2022/01/18 10:39:30;;;;;;;5.33;2.63;;;6.20;87.00;;;;;;5051745;28;20510;-76
2022/01/18 10:41:58;;;;;;;4.83;2.23;;;6.20;88.00;;;;;;5052041;28;21307;-76
2022/01/18 10:44:26;;;;;;;5.57;2.43;;;6.20;86.40;;;;;;5051755;28;21056;-74
2022/01/18 10:46:55;;;;;;;5.27;2.30;;;6.20;86.40;;;;;;5051931;28;20478;-75
2022/01/18 10:49:35;;;;;;;6.10;3.23;;;6.00;87.60;;;;;;5051585;28;20868;-75
2022/01/18 10:52:05;;;;;;;8.80;3.13;;;6.30;88.30;;;;;;5051079;28;20450;-75
2022/01/18 10:54:43;;;;;;;5.50;2.70;;;6.70;86.80;;;;;;5051544;28;20477;-73
2022/01/18 10:57:14;;;;;;;6.93;2.80;;;6.50;82.60;;;;;;5051787;28;20453;-72
2022/01/18 10:59:42;;;;;;;7.23;3.40;;;6.00;83.10;;;;;;5051254;28;20465;-78
2022/01/18 11:02:13;;;;;;;5.00;2.50;;;6.20;85.70;;;;;;5050974;28;20911;-72
2022/01/18 11:04:43;;;;;;;4.73;2.60;;;6.40;84.40;;;;;;5050911;28;21006;-74
2022/01/18 11:07:11;;;;;;;7.67;2.30;;;6.90;84.20;;;;;;5051143;28;20450;-75
2022/01/18 11:09:39;;;;;;;6.80;2.90;;;7.30;82.50;;;;;;5051065;28;20461;-76
2022/01/18 11:12:10;;;;;;;7.10;2.67;;;7.40;81.70;;;;;;5050735;28;20454;-74
2022/01/18 11:14:43;;;;;;;6.27;3.60;;;7.80;80.90;;;;;;5050724;28;20473;-77
2022/01/18 11:17:14;;;;;;;4.13;2.40;;;7.90;79.50;;;;;;5050596;28;20978;-74
2022/01/18 11:19:41;;;;;;;6.90;3.17;;;7.90;77.60;;;;;;5050336;28;20552;-74
2022/01/18 11:22:10;;;;;;;6.10;3.07;;;7.30;75.40;;;;;;5050703;28;20803;-73
2022/01/18 11:24:42;;;;;;;6.17;2.87;;;7.00;76.70;;;;;;5050536;28;20490;-74
2022/01/18 11:27:13;;;;;;;5.70;2.43;;;6.90;78.40;;;;;;5050393;28;20943;-73
2022/01/18 11:29:42;;;;;;;5.90;2.40;;;6.60;75.70;;;;;;5050535;28;20477;-74
2022/01/18 11:32:11;;;;;;;6.33;2.87;;;6.70;77.70;;;;;;5050014;28;20465;-77
2022/01/18 11:34:54;;;;;;;9.70;2.90;;;6.90;77.20;;;;;;5050430;28;20477;-74
2022/01/18 11:37:29;;;;;;;6.90;2.33;;;7.10;76.20;;;;;;5050035;28;20938;-76
2022/01/18 11:40:01;;;;;;;7.27;2.90;;;7.10;76.40;;;;;;5050121;28;20450;-70
2022/01/18 11:42:53;;;;;;;5.50;2.90;;;7.10;75.80;;;;;;5050202;28;20454;-69
2022/01/18 11:45:37;;;;;;;5.03;2.13;;;7.60;76.70;;;;;;5035030;28;20601;-67
2022/01/18 11:48:12;;;;;;;5.27;2.40;;;8.40;75.00;;;;;;5049821;28;20525;-67
2022/01/18 11:50:42;;;;;;;5.73;2.10;;;8.20;67.60;;;;;;5049986;28;20558;-67
2022/01/18 11:53:28;;;;;;;8.87;3.17;;;7.20;68.00;;;;;;5049969;28;20457;-68
2022/01/18 11:55:57;;;;;;;6.10;2.80;;;6.60;69.70;;;;;;5049542;28;20515;-68
2022/01/18 11:58:25;;;;;;;6.30;3.13;;;6.70;70.60;;;;;;5049887;28;20518;-69
2022/01/18 12:00:56;;;;;;;4.47;2.33;;;7.00;71.20;;;;;;5049934;28;20472;-67
2022/01/18 12:03:26;;;;;;;5.07;2.60;;;7.10;70.40;;;;;;5049000;28;20561;-67
2022/01/18 12:05:55;;;;;;;7.60;2.73;;;7.30;69.30;;;;;;5049414;28;20493;-67
2022/01/18 12:08:37;;;;;;;5.87;2.53;;;7.00;68.30;;;;;;5049219;28;20584;-67
2022/01/18 12:11:06;;;;;;;6.13;2.77;;;6.80;69.00;;;;;;5049300;28;20453;-67
2022/01/18 12:13:42;;;;;;;7.00;3.63;;;6.70;70.00;;;;;;5049609;28;20497;-67
2022/01/18 12:16:26;;;;;;;4.80;2.47;;;6.70;70.70;;;;;;5049706;28;20510;-68
2022/01/18 12:19:00;;;;;;;4.80;1.97;;;6.80;68.70;;;;;;5049268;28;20450;-67
2022/01/18 12:21:28;;;;;;;5.10;2.27;;;6.40;68.40;;;;;;5049499;28;20457;-66
2022/01/18 12:23:58;;;;;;;6.30;2.70;;;6.10;69.20;;;;;;5049616;28;20795;-66
2022/01/18 12:26:37;;;;;;;4.80;2.40;;;6.30;71.80;;;;;;5049638;28;20528;-68
2022/01/18 12:35:00;;;;;;;5.33;2.17;;;7.00;67.90;;;;;;5049481;28;20452;-72
2022/01/18 12:37:39;;;;;;;6.33;2.67;;;7.00;66.30;;;;;;5049933;28;20438;-72
2022/01/18 12:40:11;;;;;;;5.00;2.70;;;7.10;67.50;;;;;;5049132;28;20452;-76
2022/01/18 12:45:29;;;;;;;8.50;3.10;;;6.80;67.60;;;;;;5049305;28;20566;-69
2022/01/18 12:48:00;;;;;;;5.13;2.23;;;6.60;67.40;;;;;;5049133;28;20903;-68
2022/01/18 12:50:30;;;;;;;4.13;2.37;;;6.80;67.10;;;;;;5049225;28;20454;-68
2022/01/18 12:52:59;;;;;;;6.43;2.73;;;6.80;66.90;;;;;;5048942;28;20469;-70
2022/01/18 12:55:35;;;;;;;6.00;3.13;;;6.80;67.10;;;;;;5049207;28;20553;-69
2022/01/18 12:58:06;;;;;;;5.77;2.27;;;7.20;67.00;;;;;;5049280;28;20457;-68
2022/01/18 13:00:41;;;;;;;7.00;2.30;;;7.30;65.80;;;;;;5048948;28;20934;-70
2022/01/18 13:03:09;;;;;;;5.63;2.30;;;7.40;66.90;;;;;;5049187;28;20469;-70
2022/01/18 13:05:41;;;;;;;6.37;3.70;;;7.50;65.70;;;;;;5049129;28;20486;-69
2022/01/18 13:08:10;;;;;;;4.53;2.00;;;7.20;66.40;;;;;;5049308;28;20454;-69
2022/01/18 13:10:40;;;;;;;4.83;2.93;;;7.40;66.10;;;;;;5048663;28;20461;-71
2022/01/18 13:13:09;;;;;;;9.00;2.67;;;7.50;66.90;;;;;;5048969;28;20862;-70
2022/01/18 13:15:49;;;;;;;6.53;2.47;;;7.40;63.90;;;;;;5052331;28;20580;-69
2022/01/18 13:24:12;;;;;;;5.20;2.57;;;5.50;67.90;;;;;;5052825;28;20459;-72
2022/01/18 13:26:45;;;;;;;5.90;2.60;;;5.60;68.90;;;;;;5052933;28;20463;-65
2022/01/18 13:29:14;;;;;;;5.13;2.43;;;5.50;69.20;;;;;;5052771;28;20457;-72
2022/01/18 13:31:45;;;;;;;6.70;3.30;;;5.40;69.00;;;;;;5052626;28;20458;-72
2022/01/18 13:34:15;;;;;;;5.83;2.50;;;5.10;69.20;;;;;;5052643;28;20587;-66
2022/01/18 13:36:52;;;;;;;5.13;2.30;;;4.80;70.30;;;;;;5052661;28;20460;-65
2022/01/18 13:39:27;;;;;;;5.93;2.30;;;4.70;71.70;;;;;;5052575;28;20465;-65
2022/01/18 13:41:54;;;;;;;5.07;2.30;;;4.70;72.70;;;;;;5052603;28;20556;-65
2022/01/18 13:44:21;;;;;;;6.07;2.97;;;4.80;72.30;;;;;;5052125;28;20470;-64
2022/01/18 13:46:49;;;;;;;7.80;2.63;;;4.50;72.30;;;;;;5052476;28;20454;-65
2022/01/18 13:49:22;;;;;;;4.53;2.30;;;4.50;72.90;;;;;;5052260;28;20501;-64
2022/01/18 13:52:04;;;;;;;5.63;2.30;;;4.80;73.30;;;;;;5052370;28;20460;-66
2022/01/18 13:54:48;;;;;;;5.07;2.57;;;5.10;71.60;;;;;;5052340;28;21004;-65
2022/01/18 13:57:17;;;;;;;5.73;3.30;;;4.90;72.00;;;;;;5052105;28;20473;-66
2022/01/18 13:59:45;;;;;;;5.97;2.37;;;4.90;73.20;;;;;;5052323;28;20462;-66
2022/01/18 14:02:17;;;;;;;6.73;3.00;;;4.80;73.90;;;;;;5052175;28;20503;-64
2022/01/18 14:04:48;;;;;;;8.53;2.53;;;4.70;73.70;;;;;;5051973;28;20499;-66
2022/01/18 14:07:15;;;;;;;9.53;2.70;;;4.50;74.40;;;;;;5051827;28;20456;-66
2022/01/18 14:09:44;;;;;;;6.37;2.83;;;5.10;74.40;;;;;;5052098;28;20449;-66
2022/01/18 14:12:17;;;;;;;8.87;3.40;;;5.60;72.00;;;;;;5052015;28;20493;-65
2022/01/18 14:14:44;;;;;;;6.33;2.80;;;5.40;71.20;;;;;;5051507;28;20504;-64
2022/01/18 14:17:16;;;;;;;6.20;3.17;;;5.30;71.60;;;;;;5051880;28;20455;-66